Time;durP1;ratioP1;P1;durP2;ratioP2;P2;SDS_P1;SDS_P2;PMS_P1;PMS_P2;Temp;Humidity;BMP_temperature;BMP_pressure;BME280_temperature;BME280_humidity;BME280_pressure;Samples;Min_cycle;Max_cycle;Signal;HPM_P1;HPM_P2
2022/03/16 00:02:09;;;;;;;74.30;40.53;;;5.20;99.90;;;;;;5137916;27;20034;-71
2022/03/16 00:04:35;;;;;;;62.47;37.03;;;5.70;99.90;;;;;;5138099;27;20043;-70
2022/03/16 00:07:01;;;;;;;73.82;39.85;;;5.10;99.90;;;;;;5120232;27;20134;-71
2022/03/16 00:09:26;;;;;;;77.50;41.88;;;5.10;99.90;;;;;;5120230;27;20038;-70
2022/03/16 00:11:52;;;;;;;77.40;39.10;;;5.20;99.90;;;;;;5120463;27;20045;-70
2022/03/16 00:14:18;;;;;;;75.47;42.85;;;5.10;99.90;;;;;;5137266;27;20035;-71
2022/03/16 00:16:43;;;;;;;76.78;42.75;;;5.20;99.90;;;;;;5137060;27;20049;-71
2022/03/16 00:19:09;;;;;;;89.05;45.15;;;5.20;99.90;;;;;;5136990;27;20049;-71
2022/03/16 00:21:35;;;;;;;86.25;45.03;;;5.20;99.90;;;;;;5119921;27;20447;-71
2022/03/16 00:24:01;;;;;;;85.30;43.88;;;6.00;99.90;;;;;;5137011;27;20401;-70
2022/03/16 00:26:27;;;;;;;82.20;42.30;;;5.20;99.90;;;;;;5119781;27;20034;-69
2022/03/16 00:28:53;;;;;;;85.65;42.95;;;5.10;99.90;;;;;;5136949;27;20043;-70
2022/03/16 00:31:19;;;;;;;84.43;42.72;;;5.20;99.90;;;;;;5136820;27;20161;-70
2022/03/16 00:33:45;;;;;;;79.70;41.83;;;5.10;99.90;;;;;;5136822;27;20050;-70
2022/03/16 00:36:10;;;;;;;70.70;40.33;;;5.90;99.90;;;;;;5136793;27;20074;-69
2022/03/16 00:38:36;;;;;;;75.07;41.78;;;5.10;99.90;;;;;;5136681;27;20035;-71
2022/03/16 00:41:02;;;;;;;80.03;42.00;;;5.10;99.90;;;;;;5119314;27;20045;-70
2022/03/16 00:43:28;;;;;;;83.90;42.13;;;5.40;99.90;;;;;;5136478;27;20070;-70
2022/03/16 00:45:54;;;;;;;67.90;39.42;;;5.00;99.90;;;;;;5119337;27;20081;-70
2022/03/16 00:48:19;;;;;;;80.72;42.42;;;5.00;99.90;;;;;;5119658;27;20054;-70
2022/03/16 00:50:45;;;;;;;76.15;41.50;;;5.00;99.90;;;;;;5136434;27;20039;-69
2022/03/16 00:53:11;;;;;;;79.35;41.75;;;5.00;99.90;;;;;;5136173;27;20045;-70
2022/03/16 00:55:37;;;;;;;76.25;41.75;;;5.10;99.90;;;;;;5119362;27;20030;-70
2022/03/16 00:58:03;;;;;;;70.75;38.35;;;5.10;99.90;;;;;;5136387;27;20091;-70
2022/03/16 01:00:28;;;;;;;75.85;39.67;;;5.10;99.90;;;;;;5136326;27;20405;-71
2022/03/16 01:02:55;;;;;;;81.50;40.25;;;5.40;99.90;;;;;;5136435;27;20049;-71
2022/03/16 01:05:21;;;;;;;77.53;41.28;;;5.00;99.90;;;;;;5136401;27;20042;-71
2022/03/16 01:07:47;;;;;;;75.10;40.65;;;5.00;99.90;;;;;;5136097;27;20121;-71
2022/03/16 01:10:13;;;;;;;73.45;39.45;;;5.60;99.90;;;;;;5136122;27;20651;-72
2022/03/16 01:12:39;;;;;;;73.53;39.38;;;5.10;99.90;;;;;;5119075;27;20064;-72
2022/03/16 01:15:06;;;;;;;78.05;40.78;;;5.10;99.90;;;;;;5154909;27;20504;-72
2022/03/16 01:17:31;;;;;;;70.78;38.90;;;5.00;99.90;;;;;;5135944;27;20039;-72
2022/03/16 01:19:57;;;;;;;70.20;38.03;;;5.00;99.90;;;;;;5135880;27;20078;-72
2022/03/16 01:22:23;;;;;;;74.25;39.78;;;5.10;99.90;;;;;;5136270;27;20049;-72
2022/03/16 01:24:48;;;;;;;80.65;39.60;;;5.00;99.90;;;;;;5135917;27;20073;-72
2022/03/16 01:27:14;;;;;;;74.35;40.85;;;5.00;99.90;;;;;;5136244;27;20451;-72
2022/03/16 01:29:40;;;;;;;81.38;42.92;;;5.70;99.90;;;;;;5118780;27;20038;-72
2022/03/16 01:32:06;;;;;;;81.45;42.28;;;5.00;99.90;;;;;;5135753;27;20046;-72
2022/03/16 01:34:31;;;;;;;76.53;39.67;;;4.90;99.90;;;;;;5119114;27;20035;-72
2022/03/16 01:36:57;;;;;;;76.07;40.17;;;4.90;99.90;;;;;;5135852;27;20046;-72
2022/03/16 01:39:23;;;;;;;83.45;41.65;;;5.20;99.90;;;;;;5135204;27;20123;-72
2022/03/16 01:41:50;;;;;;;85.78;41.45;;;4.90;99.90;;;;;;5118568;27;20035;-72
2022/03/16 01:44:16;;;;;;;74.40;39.28;;;4.90;99.90;;;;;;5118856;27;20034;-72
2022/03/16 01:46:41;;;;;;;77.30;39.22;;;4.80;99.90;;;;;;5135780;27;20131;-72
2022/03/16 01:49:07;;;;;;;77.00;39.35;;;4.80;99.90;;;;;;5118833;27;20039;-72
2022/03/16 01:51:33;;;;;;;78.75;41.33;;;4.80;99.90;;;;;;5135710;27;20039;-73
2022/03/16 01:53:59;;;;;;;80.82;42.00;;;4.80;99.90;;;;;;5135871;27;20039;-72
2022/03/16 01:56:24;;;;;;;83.40;42.28;;;4.90;99.90;;;;;;5135757;27;20045;-71
2022/03/16 01:58:50;;;;;;;82.93;42.67;;;4.80;99.90;;;;;;5118416;27;20035;-72
2022/03/16 02:01:16;;;;;;;90.75;43.95;;;4.80;99.90;;;;;;5136181;27;20427;-72
2022/03/16 02:03:42;;;;;;;83.60;41.97;;;4.80;99.90;;;;;;5135639;27;20034;-71
2022/03/16 02:06:08;;;;;;;86.07;41.78;;;4.70;99.90;;;;;;5118539;27;20386;-71
2022/03/16 02:08:36;;;;;;;101.90;47.60;;;4.70;99.90;;;;;;5135800;27;20419;-71
2022/03/16 02:11:02;;;;;;;91.22;44.70;;;4.70;99.90;;;;;;5135497;27;20378;-71
2022/03/16 02:13:28;;;;;;;89.55;42.75;;;4.60;99.90;;;;;;5135566;27;20038;-71
2022/03/16 02:15:54;;;;;;;88.57;43.22;;;5.10;99.90;;;;;;5101376;27;20086;-71
2022/03/16 02:18:19;;;;;;;75.15;40.38;;;4.50;99.90;;;;;;5135477;27;20046;-71
2022/03/16 02:20:50;;;;;;;79.60;41.47;;;4.50;99.90;;;;;;5101339;27;20050;-71
2022/03/16 02:23:16;;;;;;;73.38;38.95;;;4.50;99.90;;;;;;5118444;27;20038;-71
2022/03/16 02:25:51;;;;;;;76.63;40.47;;;4.40;99.90;;;;;;5118267;27;20050;-72
2022/03/16 02:28:18;;;;;;;71.20;39.30;;;4.40;99.90;;;;;;5118132;27;20043;-72
2022/03/16 02:30:44;;;;;;;90.10;40.45;;;4.30;99.90;;;;;;5118206;27;20188;-71
2022/03/16 02:33:10;;;;;;;65.07;35.53;;;4.30;99.90;;;;;;5118431;27;20031;-71
2022/03/16 02:35:36;;;;;;;62.15;35.08;;;4.20;99.90;;;;;;5135122;27;20153;-71
2022/03/16 02:38:03;;;;;;;62.78;35.65;;;4.90;99.90;;;;;;5135450;27;20050;-71
2022/03/16 02:40:29;;;;;;;67.28;38.65;;;4.20;99.90;;;;;;5135478;27;20042;-72
2022/03/16 02:42:55;;;;;;;80.15;40.90;;;4.10;99.90;;;;;;5118387;27;20054;-72
2022/03/16 02:45:21;;;;;;;76.32;39.42;;;4.40;99.90;;;;;;5135420;27;20083;-72
2022/03/16 02:47:47;;;;;;;66.45;34.45;;;4.10;99.90;;;;;;5118583;27;20427;-72
2022/03/16 02:50:16;;;;;;;74.70;39.75;;;4.00;99.90;;;;;;5135356;27;20046;-72
2022/03/16 02:52:42;;;;;;;56.90;30.60;;;4.00;99.90;;;;;;5138439;27;20035;-72
2022/03/16 02:55:08;;;;;;;58.55;33.33;;;4.30;99.90;;;;;;5121769;27;20042;-72
2022/03/16 02:57:35;;;;;;;52.20;30.38;;;4.00;99.90;;;;;;5138741;27;20043;-72
2022/03/16 03:00:01;;;;;;;55.83;33.40;;;3.90;99.90;;;;;;5121931;27;20401;-72
2022/03/16 03:02:27;;;;;;;48.90;29.30;;;3.90;99.90;;;;;;5121494;27;20049;-72
2022/03/16 03:04:53;;;;;;;44.05;27.85;;;3.80;99.90;;;;;;5138659;27;20046;-72
2022/03/16 03:07:18;;;;;;;137.52;35.33;;;3.80;99.90;;;;;;5121853;27;20030;-72
2022/03/16 03:09:44;;;;;;;62.08;32.17;;;3.70;99.90;;;;;;5121503;27;20042;-72
2022/03/16 03:12:10;;;;;;;39.90;25.10;;;3.80;99.90;;;;;;5121265;27;20129;-72
2022/03/16 03:14:36;;;;;;;45.38;26.10;;;3.70;99.90;;;;;;5121095;27;20034;-72
2022/03/16 03:17:02;;;;;;;51.65;27.08;;;3.70;99.90;;;;;;5138295;27;20074;-72
2022/03/16 03:19:28;;;;;;;151.88;31.83;;;3.70;99.90;;;;;;5138224;27;20402;-72
2022/03/16 03:21:54;;;;;;;257.52;43.38;;;3.70;99.90;;;;;;5138286;27;20158;-72
2022/03/16 03:24:20;;;;;;;232.80;39.20;;;3.70;99.90;;;;;;5138185;27;20043;-72
2022/03/16 03:26:45;;;;;;;117.80;30.00;;;3.70;99.90;;;;;;5138127;27;20125;-72
2022/03/16 03:29:11;;;;;;;196.18;36.45;;;3.50;99.90;;;;;;5138085;27;20074;-72
2022/03/16 03:31:37;;;;;;;79.10;27.77;;;3.60;99.90;;;;;;5138000;27;20079;-71
2022/03/16 03:34:03;;;;;;;70.50;27.73;;;3.50;99.90;;;;;;5138004;27;20409;-71
2022/03/16 03:36:29;;;;;;;111.40;30.50;;;3.60;99.90;;;;;;5137896;27;20129;-71
2022/03/16 03:38:55;;;;;;;81.68;28.63;;;3.50;99.90;;;;;;5138079;27;20538;-71
2022/03/16 03:41:21;;;;;;;77.88;31.50;;;3.50;99.90;;;;;;5137930;27;20134;-72
2022/03/16 03:43:47;;;;;;;211.70;44.30;;;3.50;99.90;;;;;;5138088;27;20074;-71
2022/03/16 03:46:13;;;;;;;51.22;29.60;;;3.60;99.90;;;;;;5137938;27;20046;-72
2022/03/16 03:48:38;;;;;;;83.03;32.28;;;3.60;99.90;;;;;;5104091;27;20046;-72
2022/03/16 03:51:04;;;;;;;134.13;37.40;;;3.50;99.90;;;;;;5137876;27;20035;-72
2022/03/16 03:53:30;;;;;;;139.70;39.75;;;3.60;99.90;;;;;;5138112;27;20049;-72
2022/03/16 03:55:55;;;;;;;76.57;34.42;;;4.00;99.90;;;;;;5137640;27;20046;-72
2022/03/16 03:58:21;;;;;;;178.48;43.33;;;3.60;99.90;;;;;;5137560;27;20034;-71
2022/03/16 04:00:49;;;;;;;162.73;43.58;;;3.60;99.90;;;;;;5137464;27;20042;-71
2022/03/16 04:03:15;;;;;;;195.77;47.20;;;3.60;99.90;;;;;;5136885;27;20034;-71
2022/03/16 04:05:41;;;;;;;197.15;47.55;;;3.50;99.90;;;;;;5137265;27;20049;-72
2022/03/16 04:08:07;;;;;;;80.88;32.35;;;3.60;99.90;;;;;;5120219;27;20062;-72
2022/03/16 04:10:33;;;;;;;172.07;40.08;;;3.70;99.90;;;;;;5137194;27;20401;-71
2022/03/16 04:12:58;;;;;;;241.95;45.70;;;3.60;99.90;;;;;;5137163;27;20379;-71
2022/03/16 04:15:24;;;;;;;262.80;46.05;;;3.60;99.90;;;;;;5137437;27;20042;-71
2022/03/16 04:17:49;;;;;;;242.13;45.42;;;3.60;99.90;;;;;;5119957;27;20034;-72
2022/03/16 04:20:15;;;;;;;305.27;46.72;;;4.30;99.90;;;;;;5102760;27;20055;-73
2022/03/16 04:22:41;;;;;;;307.00;52.28;;;3.60;99.90;;;;;;5119924;27;20039;-71
2022/03/16 04:25:08;;;;;;;265.65;49.58;;;3.60;99.90;;;;;;5137105;27;20096;-71
2022/03/16 04:27:33;;;;;;;383.73;61.28;;;3.60;99.90;;;;;;5119965;27;20078;-71
2022/03/16 04:29:59;;;;;;;311.45;55.63;;;3.60;99.90;;;;;;5119972;27;20094;-71
2022/03/16 04:32:24;;;;;;;347.58;57.72;;;3.60;99.90;;;;;;5137215;27;20050;-71
2022/03/16 04:34:50;;;;;;;270.00;45.38;;;3.60;99.90;;;;;;5119947;27;20045;-71
2022/03/16 04:37:16;;;;;;;284.13;44.97;;;3.60;99.90;;;;;;5136727;27;20134;-72
2022/03/16 04:39:42;;;;;;;510.70;74.55;;;4.10;99.90;;;;;;5136943;27;20087;-72
2022/03/16 04:42:07;;;;;;;348.90;56.78;;;3.40;99.90;;;;;;5136675;27;20030;-71
2022/03/16 04:44:33;;;;;;;364.30;55.28;;;3.60;99.90;;;;;;5136586;27;20043;-73
2022/03/16 04:46:59;;;;;;;349.98;53.80;;;4.10;99.90;;;;;;5136928;27;20156;-72
2022/03/16 04:49:24;;;;;;;502.55;78.95;;;4.00;99.90;;;;;;5136540;27;20043;-72
2022/03/16 04:51:50;;;;;;;433.90;67.63;;;3.80;99.90;;;;;;5136564;27;20417;-72
2022/03/16 04:54:16;;;;;;;415.15;63.03;;;3.50;99.90;;;;;;5119387;27;20481;-72
2022/03/16 04:56:42;;;;;;;400.73;61.85;;;3.60;99.90;;;;;;5102464;27;20046;-72
2022/03/16 04:59:08;;;;;;;356.90;65.15;;;3.60;99.90;;;;;;5136615;27;20086;-72
2022/03/16 05:01:34;;;;;;;344.65;64.00;;;3.60;99.90;;;;;;5118956;27;20035;-72
2022/03/16 05:04:00;;;;;;;262.67;54.10;;;3.50;99.90;;;;;;5136202;27;20066;-71
2022/03/16 05:06:26;;;;;;;415.33;71.55;;;3.60;99.90;;;;;;5136640;27;20166;-71
2022/03/16 05:08:51;;;;;;;511.80;81.47;;;3.50;99.90;;;;;;5119095;27;20043;-71
2022/03/16 05:11:20;;;;;;;251.35;49.28;;;3.50;99.90;;;;;;5119020;27;20134;-72
2022/03/16 05:13:46;;;;;;;341.52;59.15;;;3.50;99.90;;;;;;5118401;27;20506;-72
2022/03/16 05:16:12;;;;;;;506.30;75.47;;;3.50;99.90;;;;;;5135870;27;20145;-72
2022/03/16 05:18:40;;;;;;;357.85;59.13;;;3.40;99.90;;;;;;5136049;27;20085;-71
2022/03/16 05:21:09;;;;;;;377.88;60.55;;;3.40;99.90;;;;;;5135967;27;20103;-71
2022/03/16 05:23:36;;;;;;;340.15;60.58;;;3.40;99.90;;;;;;5135784;27;20087;-71
2022/03/16 05:26:02;;;;;;;275.17;50.65;;;3.40;99.90;;;;;;5136030;27;20046;-71
2022/03/16 05:28:28;;;;;;;280.20;55.53;;;3.70;99.90;;;;;;5102028;27;20129;-71
2022/03/16 05:30:53;;;;;;;216.00;49.88;;;3.40;99.90;;;;;;5135816;27;20122;-71
2022/03/16 05:33:19;;;;;;;179.65;43.75;;;3.40;99.90;;;;;;5118608;27;20045;-71
2022/03/16 05:35:45;;;;;;;282.90;62.25;;;3.40;99.90;;;;;;5135859;27;20035;-71
2022/03/16 05:38:13;;;;;;;188.10;50.13;;;3.40;99.90;;;;;;5118677;27;20035;-71
2022/03/16 05:40:43;;;;;;;277.75;66.05;;;3.40;99.90;;;;;;5135786;27;20038;-71
2022/03/16 05:43:10;;;;;;;123.65;44.28;;;3.40;99.90;;;;;;5118770;27;20046;-71
2022/03/16 05:45:37;;;;;;;115.85;44.53;;;3.40;99.90;;;;;;5101948;27;20118;-72
2022/03/16 05:48:03;;;;;;;112.72;46.55;;;3.40;99.90;;;;;;5135640;27;20050;-72
2022/03/16 05:50:29;;;;;;;78.03;38.97;;;3.40;99.90;;;;;;5135829;27;20038;-72
2022/03/16 05:52:59;;;;;;;77.25;39.80;;;3.40;99.90;;;;;;5135595;27;20038;-71
2022/03/16 05:55:25;;;;;;;107.13;47.87;;;3.50;99.90;;;;;;5135464;27;20045;-71
2022/03/16 05:57:51;;;;;;;104.13;48.92;;;3.60;99.90;;;;;;5135696;27;20272;-71
2022/03/16 06:00:18;;;;;;;96.75;47.08;;;3.60;99.90;;;;;;5135799;27;20043;-71
2022/03/16 06:02:45;;;;;;;90.72;47.40;;;3.70;99.90;;;;;;5154110;27;20114;-71
2022/03/16 06:05:11;;;;;;;82.13;41.97;;;3.70;99.90;;;;;;5135584;27;20045;-72
2022/03/16 06:07:40;;;;;;;76.20;43.22;;;3.80;99.90;;;;;;5118629;27;20038;-72
2022/03/16 06:10:07;;;;;;;74.72;38.35;;;3.80;99.90;;;;;;5135782;27;20035;-72
2022/03/16 06:12:33;;;;;;;108.43;42.55;;;3.90;99.90;;;;;;5118417;27;20129;-72
2022/03/16 06:14:59;;;;;;;72.43;35.80;;;3.90;99.90;;;;;;5135440;27;20126;-71
2022/03/16 06:17:24;;;;;;;72.85;37.03;;;3.80;99.90;;;;;;5135455;27;20065;-71
2022/03/16 06:19:50;;;;;;;65.28;33.58;;;3.80;99.90;;;;;;5131881;28;20047;-72
2022/03/16 06:22:16;;;;;;;78.68;37.00;;;3.80;99.90;;;;;;5098306;28;20050;-70
2022/03/16 06:24:41;;;;;;;63.35;32.35;;;3.80;99.90;;;;;;5114918;27;20039;-71
2022/03/16 06:27:07;;;;;;;68.40;33.75;;;3.80;99.90;;;;;;5118765;27;20047;-71
2022/03/16 06:29:33;;;;;;;64.63;33.55;;;3.80;99.90;;;;;;5118673;27;20043;-71
2022/03/16 06:31:58;;;;;;;52.35;30.90;;;3.80;99.90;;;;;;5135772;27;20173;-71
2022/03/16 06:34:25;;;;;;;71.88;35.30;;;3.80;99.90;;;;;;5118738;27;20035;-72
2022/03/16 06:36:51;;;;;;;80.82;35.15;;;3.80;99.90;;;;;;5135971;27;20046;-72
2022/03/16 06:39:17;;;;;;;73.63;36.20;;;3.80;99.90;;;;;;5135759;27;20036;-74
2022/03/16 06:41:43;;;;;;;78.65;38.75;;;4.20;99.90;;;;;;5135950;27;20038;-71
2022/03/16 06:44:10;;;;;;;71.53;35.58;;;4.00;99.90;;;;;;5135695;27;20043;-70
2022/03/16 06:46:35;;;;;;;82.38;38.10;;;5.00;99.90;;;;;;5135788;27;20511;-71
2022/03/16 06:49:01;;;;;;;76.05;37.47;;;3.80;99.90;;;;;;5135574;27;20047;-72
2022/03/16 06:51:27;;;;;;;64.32;33.92;;;3.90;99.90;;;;;;5135550;27;20046;-71
2022/03/16 06:53:52;;;;;;;78.13;38.10;;;3.90;99.90;;;;;;5135331;27;20043;-70
2022/03/16 06:56:18;;;;;;;78.60;37.35;;;3.90;99.90;;;;;;5135230;27;20043;-71
2022/03/16 06:58:44;;;;;;;75.75;36.03;;;4.00;99.90;;;;;;5135377;27;20070;-72
2022/03/16 07:01:09;;;;;;;77.47;38.90;;;3.90;99.90;;;;;;5118530;27;20066;-71
2022/03/16 07:03:35;;;;;;;78.03;39.80;;;3.90;99.90;;;;;;5118032;27;20041;-72
2022/03/16 07:06:02;;;;;;;78.20;39.75;;;4.00;99.90;;;;;;5135292;27;20107;-73
2022/03/16 07:08:27;;;;;;;70.53;37.40;;;4.00;99.90;;;;;;5135243;27;20092;-71
2022/03/16 07:10:53;;;;;;;70.30;37.65;;;4.50;99.90;;;;;;5117865;27;20042;-69
2022/03/16 07:13:19;;;;;;;72.22;37.22;;;4.10;99.90;;;;;;5134964;27;20043;-71
2022/03/16 07:15:45;;;;;;;69.57;36.85;;;4.20;99.90;;;;;;5135078;27;20062;-71
2022/03/16 07:18:12;;;;;;;73.57;38.00;;;4.20;99.90;;;;;;5118152;27;20043;-72
2022/03/16 07:20:37;;;;;;;70.85;38.75;;;4.30;99.90;;;;;;5134892;27;20046;-71
2022/03/16 07:23:12;;;;;;;64.50;38.80;;;4.40;99.90;;;;;;5135020;27;20409;-71
2022/03/16 07:25:39;;;;;;;68.70;38.95;;;4.50;99.90;;;;;;5117916;27;20394;-71
2022/03/16 07:28:05;;;;;;;64.07;37.55;;;4.40;99.90;;;;;;5118080;27;20067;-71
2022/03/16 07:30:32;;;;;;;61.42;37.17;;;5.20;99.90;;;;;;5134791;27;20091;-71
2022/03/16 07:32:58;;;;;;;65.38;37.88;;;4.80;99.90;;;;;;5134780;27;20039;-72
2022/03/16 07:35:26;;;;;;;56.55;34.45;;;4.90;99.90;;;;;;5117365;27;20042;-71
2022/03/16 07:37:53;;;;;;;58.22;34.90;;;4.90;99.90;;;;;;5116466;27;20125;-72
2022/03/16 07:40:19;;;;;;;57.15;34.75;;;5.10;99.90;;;;;;5134685;27;20394;-72
2022/03/16 07:42:46;;;;;;;54.10;33.60;;;5.50;99.90;;;;;;5134548;27;20039;-72
2022/03/16 07:45:15;;;;;;;52.83;32.22;;;5.10;99.90;;;;;;5133680;27;20043;-71
2022/03/16 07:47:42;;;;;;;52.70;31.63;;;5.00;99.90;;;;;;5116615;27;20038;-71
2022/03/16 07:50:09;;;;;;;47.53;31.17;;;5.10;99.90;;;;;;5133484;27;20181;-71
2022/03/16 07:52:35;;;;;;;52.17;34.05;;;5.20;99.90;;;;;;5116505;27;20520;-72
2022/03/16 07:55:01;;;;;;;48.00;32.95;;;5.40;99.90;;;;;;5133268;27;20122;-72
2022/03/16 07:57:27;;;;;;;49.55;33.03;;;5.50;99.90;;;;;;5116440;27;20434;-71
2022/03/16 07:59:52;;;;;;;56.50;34.35;;;5.60;99.90;;;;;;5133406;27;20035;-71
2022/03/16 08:02:18;;;;;;;46.33;32.90;;;5.80;99.90;;;;;;5116101;27;20050;-71
2022/03/16 08:04:44;;;;;;;47.38;31.70;;;6.00;99.90;;;;;;5133098;27;20499;-72
2022/03/16 08:07:10;;;;;;;45.58;31.92;;;6.10;99.90;;;;;;5133007;27;20383;-71
2022/03/16 08:09:36;;;;;;;46.75;30.17;;;6.10;99.90;;;;;;5115855;27;20057;-71
2022/03/16 08:12:03;;;;;;;47.15;32.20;;;6.20;99.90;;;;;;5132946;27;20039;-71
2022/03/16 08:14:29;;;;;;;48.58;32.20;;;6.30;99.90;;;;;;5132878;27;20172;-72
2022/03/16 08:16:54;;;;;;;48.97;32.63;;;6.30;99.90;;;;;;5132849;27;20134;-71
2022/03/16 08:19:21;;;;;;;46.78;31.52;;;6.40;99.90;;;;;;5115496;27;20055;-71
2022/03/16 08:21:47;;;;;;;45.15;31.35;;;6.80;99.90;;;;;;5132743;27;20039;-72
2022/03/16 08:24:14;;;;;;;44.45;29.92;;;6.90;99.90;;;;;;5115592;27;20058;-71
2022/03/16 08:26:40;;;;;;;42.03;29.42;;;6.90;99.90;;;;;;5099097;27;20079;-72
2022/03/16 08:29:05;;;;;;;45.80;30.98;;;6.70;99.90;;;;;;5133269;27;20062;-72
2022/03/16 08:31:31;;;;;;;42.70;30.63;;;6.90;99.90;;;;;;5132546;27;20047;-71
2022/03/16 08:33:57;;;;;;;42.60;29.33;;;7.20;99.90;;;;;;5115713;27;20039;-72
2022/03/16 08:36:23;;;;;;;44.95;29.90;;;;;;;;;;5132454;27;20039;-72
2022/03/16 08:38:48;;;;;;;44.60;29.83;;;7.10;99.90;;;;;;5115649;27;20138;-72
2022/03/16 08:41:14;;;;;;;41.53;28.70;;;7.70;99.90;;;;;;5132437;27;20122;-72
2022/03/16 08:43:40;;;;;;;42.45;29.10;;;;;;;;;;5115212;27;20035;-72
2022/03/16 08:46:06;;;;;;;43.72;30.48;;;;;;;;;;5132525;27;20477;-72
2022/03/16 08:48:32;;;;;;;46.70;31.25;;;;;;;;;;5132479;27;20039;-72
2022/03/16 08:50:58;;;;;;;46.00;30.80;;;;;;;;;;5132453;27;20432;-71
2022/03/16 08:53:25;;;;;;;39.45;27.38;;;;;;;;;;5132273;27;20501;-72
2022/03/16 08:55:51;;;;;;;46.30;29.08;;;;;;;;;;5114873;27;20129;-72
2022/03/16 08:58:16;;;;;;;42.47;27.58;;;8.40;99.90;;;;;;5132300;27;20465;-71
2022/03/16 09:00:42;;;;;;;43.90;29.05;;;;;;;;;;5132248;27;20079;-72
2022/03/16 09:03:09;;;;;;;39.92;27.38;;;;;;;;;;5131985;27;20075;-73
2022/03/16 09:05:35;;;;;;;43.47;27.38;;;;;;;;;;5114850;27;20035;-74
2022/03/16 09:08:01;;;;;;;36.13;26.17;;;9.00;99.90;;;;;;5114918;27;20043;-73
2022/03/16 09:10:27;;;;;;;41.13;27.02;;;9.30;99.90;;;;;;5115018;27;20508;-73
2022/03/16 09:12:52;;;;;;;38.05;26.08;;;9.30;99.90;;;;;;5131801;27;20042;-74
2022/03/16 09:15:19;;;;;;;39.15;27.67;;;10.00;99.90;;;;;;5131793;27;20035;-72
2022/03/16 09:17:45;;;;;;;36.88;26.63;;;9.80;99.90;;;;;;5131819;27;20047;-73
2022/03/16 09:20:11;;;;;;;40.90;26.65;;;9.70;99.90;;;;;;5131708;27;20043;-72
2022/03/16 09:22:37;;;;;;;34.30;24.38;;;9.90;99.90;;;;;;5114599;27;20038;-72
2022/03/16 09:25:03;;;;;;;34.25;24.42;;;10.60;99.90;;;;;;5115230;27;20206;-72
2022/03/16 09:27:29;;;;;;;34.63;23.48;;;10.00;99.90;;;;;;5131532;27;20460;-72
2022/03/16 09:29:55;;;;;;;30.85;23.05;;;10.10;99.90;;;;;;5131515;27;20083;-72
2022/03/16 09:32:22;;;;;;;29.95;22.05;;;10.20;99.90;;;;;;5131953;27;20574;-72
2022/03/16 09:34:49;;;;;;;32.95;21.83;;;10.30;99.90;;;;;;5114904;27;20510;-72
2022/03/16 09:37:15;;;;;;;25.42;20.80;;;10.50;99.90;;;;;;5131393;27;20134;-72
2022/03/16 09:39:41;;;;;;;27.33;19.95;;;10.60;99.90;;;;;;5114438;28;20089;-72
2022/03/16 09:42:08;;;;;;;29.23;19.33;;;10.80;99.90;;;;;;5131659;28;20100;-72
2022/03/16 09:44:34;;;;;;;26.98;19.13;;;10.90;99.90;;;;;;5131432;28;20043;-72
2022/03/16 09:47:00;;;;;;;24.17;18.17;;;11.00;99.90;;;;;;5131665;28;20410;-72
2022/03/16 09:49:27;;;;;;;23.40;16.65;;;11.00;99.90;;;;;;5131455;28;20042;-72
2022/03/16 09:51:54;;;;;;;23.95;15.52;;;11.00;99.90;;;;;;5131329;28;20039;-72
2022/03/16 09:54:24;;;;;;;19.00;13.50;;;11.10;99.90;;;;;;5114297;28;20046;-72
2022/03/16 09:56:50;;;;;;;18.80;13.18;;;11.20;99.90;;;;;;5131309;28;20043;-73
2022/03/16 09:59:16;;;;;;;18.15;12.65;;;11.30;99.90;;;;;;5114543;27;20077;-73
2022/03/16 10:01:43;;;;;;;16.90;11.48;;;11.30;99.90;;;;;;5135232;27;20043;-73
2022/03/16 10:04:09;;;;;;;16.67;12.05;;;11.50;99.90;;;;;;5118506;27;20058;-73
2022/03/16 10:06:40;;;;;;;15.32;11.93;;;11.30;99.90;;;;;;5118327;27;20044;-73
2022/03/16 10:15:04;;;;;;;14.55;10.90;;;11.50;99.90;;;;;;5135290;27;20062;-71
2022/03/16 10:17:45;;;;;;;15.18;10.75;;;11.60;99.90;;;;;;5118051;27;20125;-72
2022/03/16 10:20:22;;;;;;;16.35;11.30;;;11.70;99.90;;;;;;5117893;27;20054;-73
2022/03/16 10:22:53;;;;;;;17.42;10.82;;;11.70;99.90;;;;;;5118066;27;20476;-72
2022/03/16 10:25:18;;;;;;;13.93;10.98;;;11.70;99.90;;;;;;5135241;27;20050;-72
2022/03/16 10:27:44;;;;;;;15.20;10.18;;;11.90;99.90;;;;;;5100924;27;20043;-72
2022/03/16 10:30:10;;;;;;;15.13;11.23;;;12.10;99.90;;;;;;5117998;27;20053;-72
2022/03/16 10:32:36;;;;;;;17.23;10.98;;;12.10;99.90;;;;;;5135341;27;20130;-72
2022/03/16 10:35:05;;;;;;;17.73;11.30;;;12.10;99.90;;;;;;5100859;27;20043;-72
2022/03/16 10:37:33;;;;;;;16.98;11.20;;;12.40;99.90;;;;;;5134872;27;20534;-73
2022/03/16 10:39:58;;;;;;;20.63;12.65;;;12.40;99.90;;;;;;5117989;27;20079;-72
2022/03/16 10:48:15;;;;;;;16.92;12.15;;;12.50;99.90;;;;;;5134735;27;20051;-73
2022/03/16 10:50:42;;;;;;;19.40;13.00;;;12.60;99.90;;;;;;5135069;27;20038;-73
2022/03/16 10:53:14;;;;;;;17.13;12.68;;;12.60;99.90;;;;;;5134654;27;20051;-73
2022/03/16 10:55:40;;;;;;;20.88;12.88;;;12.70;99.90;;;;;;5100976;27;20043;-72
2022/03/16 10:58:07;;;;;;;21.25;13.18;;;12.80;99.90;;;;;;5134504;27;20091;-72
2022/03/16 11:00:37;;;;;;;20.42;13.23;;;12.80;99.90;;;;;;5117374;27;20104;-72
2022/03/16 11:03:16;;;;;;;18.20;12.60;;;12.80;99.90;;;;;;5134473;27;20097;-72
2022/03/16 11:05:45;;;;;;;22.67;13.05;;;12.90;99.90;;;;;;5134671;27;20031;-72
2022/03/16 11:08:11;;;;;;;16.98;12.07;;;13.00;99.90;;;;;;5134301;27;20062;-71
2022/03/16 11:10:39;;;;;;;18.15;13.25;;;13.10;99.90;;;;;;5134354;27;20397;-72
2022/03/16 11:15:56;;;;;;;22.58;13.15;;;13.20;99.90;;;;;;5134090;27;20131;-72
2022/03/16 11:18:26;;;;;;;17.00;11.38;;;13.20;99.90;;;;;;5116948;27;20039;-72
2022/03/16 11:21:01;;;;;;;16.33;11.52;;;13.20;99.90;;;;;;5133982;27;20456;-73
2022/03/16 11:27:00;;;;;;;18.10;11.65;;;13.10;99.90;;;;;;5133882;27;20073;-72
2022/03/16 11:29:32;;;;;;;19.85;12.73;;;13.00;99.90;;;;;;5133998;27;20155;-71
2022/03/16 11:32:09;;;;;;;18.30;12.38;;;13.10;99.90;;;;;;5133988;27;20054;-72
2022/03/16 11:34:36;;;;;;;20.60;12.88;;;13.20;99.90;;;;;;5133821;27;20051;-73
2022/03/16 11:37:09;;;;;;;17.25;11.77;;;13.40;99.90;;;;;;5133770;27;20043;-72
2022/03/16 11:40:05;;;;;;;15.70;11.52;;;13.60;99.90;;;;;;5116863;27;20061;-71
2022/03/16 11:42:32;;;;;;;17.55;11.85;;;13.80;99.90;;;;;;5133798;27;20039;-71
2022/03/16 11:45:30;;;;;;;16.77;12.65;;;13.90;99.90;;;;;;5100174;27;20051;-72
2022/03/16 11:47:56;;;;;;;15.73;11.73;;;14.00;99.90;;;;;;5133554;27;20046;-73
2022/03/16 11:50:22;;;;;;;16.45;12.07;;;14.00;99.90;;;;;;5116401;27;20042;-73
2022/03/16 11:53:05;;;;;;;17.80;12.50;;;14.00;99.90;;;;;;5099671;27;20082;-72
2022/03/16 11:55:46;;;;;;;16.13;11.43;;;14.10;99.90;;;;;;5133782;27;20051;-72
2022/03/16 11:58:25;;;;;;;19.33;13.07;;;14.30;99.90;;;;;;5133718;27;20064;-72
2022/03/16 12:01:28;;;;;;;16.80;12.10;;;14.30;99.90;;;;;;5133293;27;20036;-73
2022/03/16 12:04:15;;;;;;;17.67;12.98;;;14.60;99.90;;;;;;5133348;27;20043;-72
2022/03/16 12:06:53;;;;;;;16.30;11.93;;;14.60;99.90;;;;;;5116166;27;20490;-72
2022/03/16 12:09:29;;;;;;;17.65;12.82;;;14.80;99.90;;;;;;5116453;27;20474;-73
2022/03/16 12:15:12;;;;;;;17.00;11.75;;;14.90;99.90;;;;;;5090492;27;20085;-74
2022/03/16 12:17:54;;;;;;;16.52;11.88;;;15.20;99.90;;;;;;5132925;27;20074;-72
2022/03/16 12:20:34;;;;;;;16.35;12.13;;;15.30;99.90;;;;;;5132937;27;20055;-73
2022/03/16 12:23:01;;;;;;;;;;;15.50;99.90;;;;;;5132983;27;20043;-72
2022/03/16 12:25:29;;;;;;;17.63;12.43;;;15.60;99.90;;;;;;5133145;27;20243;-72
2022/03/16 12:30:56;;;;;;;20.58;12.65;;;15.60;99.90;;;;;;5132758;27;20049;-72
2022/03/16 12:33:24;;;;;;;16.48;11.73;;;15.70;99.90;;;;;;5115497;27;20088;-73
2022/03/16 12:36:03;;;;;;;18.88;12.45;;;16.00;99.90;;;;;;5116410;27;20042;-73
2022/03/16 12:38:31;;;;;;;18.65;11.90;;;16.00;99.90;;;;;;5132909;27;20088;-72
2022/03/16 12:43:47;;;;;;;15.98;12.18;;;16.20;99.90;;;;;;5133331;27;20039;-74
2022/03/16 12:46:23;;;;;;;18.10;12.38;;;17.60;96.40;;;;;;5133354;27;20402;-73
2022/03/16 12:48:56;;;;;;;17.63;12.00;;;16.10;98.20;;;;;;5133306;27;20043;-73
2022/03/16 12:51:44;;;;;;;15.63;11.45;;;16.30;98.30;;;;;;5133316;27;20035;-72
2022/03/16 12:54:14;;;;;;;16.45;11.73;;;16.40;93.90;;;;;;5116051;27;20035;-72
2022/03/16 12:56:45;;;;;;;19.63;13.43;;;16.60;95.30;;;;;;5115927;27;20043;-72
2022/03/16 12:59:12;;;;;;;18.70;11.65;;;16.90;96.30;;;;;;5133167;27;20045;-73
2022/03/16 13:01:39;;;;;;;14.60;11.57;;;17.10;95.30;;;;;;5133026;27;20074;-73
2022/03/16 13:04:06;;;;;;;15.65;12.25;;;17.10;93.40;;;;;;5132973;27;20043;-72